createdAt,value
2019-01-30T00:00:05.054Z,-6.66
2019-01-30T00:01:05.059Z,-6.74
2019-01-30T00:02:05.058Z,-6.66
2019-01-30T00:03:05.061Z,-6.66
2019-01-30T00:04:05.060Z,-6.61
2019-01-30T00:05:05.062Z,-6.65
2019-01-30T00:06:05.064Z,-6.65
2019-01-30T00:07:05.069Z,-6.61
2019-01-30T00:08:05.066Z,-6.52
2019-01-30T00:09:05.067Z,-6.54
2019-01-30T00:10:05.070Z,-6.52
2019-01-30T00:11:05.071Z,-6.47
2019-01-30T00:12:05.071Z,-6.43
2019-01-30T00:13:05.074Z,-6.43
2019-01-30T00:14:05.074Z,-6.47
2019-01-30T00:15:05.075Z,-6.44
2019-01-30T00:16:05.075Z,-6.39
2019-01-30T00:17:05.077Z,-6.34
2019-01-30T00:18:05.082Z,-6.43
2019-01-30T00:19:05.082Z,-6.34
2019-01-30T00:20:05.083Z,-6.39
2019-01-30T00:21:05.082Z,-6.31
2019-01-30T00:22:05.083Z,-6.29
2019-01-30T00:23:05.086Z,-6.25
2019-01-30T00:24:05.089Z,-6.25
2019-01-30T00:25:05.091Z,-6.19
2019-01-30T00:26:05.092Z,-6.31
2019-01-30T00:27:05.094Z,-6.26
2019-01-30T00:28:05.094Z,-6.34
2019-01-30T00:29:05.093Z,-6.23
2019-01-30T00:30:05.102Z,-6.28
2019-01-30T00:31:05.096Z,-6.43
2019-01-30T00:32:05.098Z,-6.50
2019-01-30T00:33:05.098Z,-6.58
2019-01-30T00:34:05.100Z,-6.61
2019-01-30T00:35:05.102Z,-6.65
2019-01-30T00:36:05.103Z,-6.61
2019-01-30T00:37:05.103Z,-6.65
2019-01-30T00:38:05.105Z,-6.62
2019-01-30T00:39:05.107Z,-6.61
2019-01-30T00:40:05.109Z,-6.61
2019-01-30T00:41:05.109Z,-6.54
2019-01-30T00:42:05.110Z,-6.49
2019-01-30T00:43:05.117Z,-6.47
2019-01-30T00:44:05.112Z,-6.50
2019-01-30T00:45:05.114Z,-6.40
2019-01-30T00:46:05.118Z,-6.43
2019-01-30T00:47:05.117Z,-6.40
2019-01-30T00:48:05.116Z,-6.36
2019-01-30T00:49:05.119Z,-6.42
2019-01-30T00:50:05.120Z,-6.37
2019-01-30T00:51:05.123Z,-6.29
2019-01-30T00:52:05.122Z,-6.32
2019-01-30T00:53:05.125Z,-6.40
2019-01-30T00:54:05.128Z,-6.29
2019-01-30T00:55:05.126Z,-6.28
2019-01-30T00:56:05.129Z,-6.26
2019-01-30T00:57:05.129Z,-6.37
2019-01-30T00:58:05.129Z,-6.36
2019-01-30T00:59:05.134Z,-6.31
2019-01-30T01:00:14.443Z,-6.39
2019-01-30T01:01:05.134Z,-6.36
2019-01-30T01:02:05.135Z,-6.39
2019-01-30T01:03:05.139Z,-6.42
2019-01-30T01:04:05.139Z,-6.49
2019-01-30T01:05:05.138Z,-6.40
2019-01-30T01:06:05.142Z,-6.43
2019-01-30T01:07:05.142Z,-6.37
2019-01-30T01:08:05.142Z,-6.39
2019-01-30T01:09:05.142Z,-6.36
2019-01-30T01:10:05.144Z,-6.42
2019-01-30T01:11:05.148Z,-6.39
2019-01-30T01:12:05.146Z,-6.34
2019-01-30T01:13:05.149Z,-6.29
2019-01-30T01:14:05.152Z,-6.37
2019-01-30T01:15:05.152Z,-6.34
2019-01-30T01:16:05.154Z,-6.29
2019-01-30T01:17:05.152Z,-6.36
2019-01-30T01:18:05.155Z,-6.36
2019-01-30T01:19:05.160Z,-6.37
2019-01-30T01:20:05.158Z,-6.34
2019-01-30T01:21:05.157Z,-6.29
2019-01-30T01:22:05.160Z,-6.31
2019-01-30T01:23:05.161Z,-6.25
2019-01-30T01:24:05.166Z,-6.26
2019-01-30T01:25:05.166Z,-6.25
2019-01-30T01:26:05.165Z,-6.28
2019-01-30T01:27:05.176Z,-6.34
2019-01-30T01:28:05.171Z,-6.29
2019-01-30T01:29:05.167Z,-6.29
2019-01-30T01:30:05.170Z,-6.29
2019-01-30T01:31:05.172Z,-6.22
2019-01-30T01:32:05.172Z,-6.28
2019-01-30T01:33:05.268Z,-6.23
2019-01-30T01:34:05.175Z,-6.28
2019-01-30T01:35:05.176Z,-6.28
2019-01-30T01:36:05.179Z,-6.23
2019-01-30T01:37:05.179Z,-6.23
2019-01-30T01:38:05.184Z,-6.25
2019-01-30T01:39:05.183Z,-6.15
2019-01-30T01:40:05.183Z,-6.28
2019-01-30T01:41:05.185Z,-6.31
2019-01-30T01:42:05.187Z,-6.25
2019-01-30T01:43:05.280Z,-6.26
2019-01-30T01:44:05.188Z,-6.39
2019-01-30T01:45:05.192Z,-6.31
2019-01-30T01:46:05.192Z,-6.29
2019-01-30T01:47:05.196Z,-6.29
2019-01-30T01:48:05.195Z,-6.32
2019-01-30T01:49:05.195Z,-6.31
2019-01-30T01:50:05.198Z,-6.21
2019-01-30T01:51:05.198Z,-6.25
2019-01-30T01:52:05.199Z,-6.47
2019-01-30T01:53:05.203Z,-6.62
2019-01-30T01:54:05.206Z,-6.66
2019-01-30T01:55:05.204Z,-6.71
2019-01-30T01:56:05.205Z,-6.61
2019-01-30T01:57:05.211Z,-6.65
2019-01-30T01:58:05.207Z,-6.71
2019-01-30T01:59:05.208Z,-6.61
2019-01-30T02:00:05.211Z,-6.69
2019-01-30T02:01:05.215Z,-6.65
2019-01-30T02:02:05.215Z,-6.58
2019-01-30T02:03:05.214Z,-6.58
2019-01-30T02:04:05.219Z,-6.61
2019-01-30T02:05:05.222Z,-6.61
2019-01-30T02:06:05.218Z,-6.59
2019-01-30T02:07:05.223Z,-6.54
2019-01-30T02:08:05.223Z,-6.55
2019-01-30T02:09:05.225Z,-6.61
2019-01-30T02:10:05.225Z,-6.73
2019-01-30T02:11:05.226Z,-6.71
2019-01-30T02:12:05.229Z,-6.66
2019-01-30T02:13:05.231Z,-6.74
2019-01-30T02:14:05.230Z,-6.65
2019-01-30T02:15:05.230Z,-6.63
2019-01-30T02:16:05.277Z,-6.68
2019-01-30T02:17:05.238Z,-6.66
2019-01-30T02:18:05.234Z,-6.65
2019-01-30T02:19:05.236Z,-6.63
2019-01-30T02:20:05.235Z,-6.68
2019-01-30T02:21:05.243Z,-6.59
2019-01-30T02:22:05.239Z,-6.58
2019-01-30T02:23:05.246Z,-6.58
2019-01-30T02:24:05.242Z,-6.47
2019-01-30T02:25:05.243Z,-6.49
2019-01-30T02:26:05.247Z,-6.49
2019-01-30T02:27:05.246Z,-6.49
2019-01-30T02:28:05.247Z,-6.40
2019-01-30T02:29:05.249Z,-6.46
2019-01-30T02:30:05.253Z,-6.43
2019-01-30T02:31:05.263Z,-6.47
2019-01-30T02:32:05.257Z,-6.49
2019-01-30T02:33:05.258Z,-6.39
2019-01-30T02:34:05.256Z,-6.39
2019-01-30T02:35:05.256Z,-6.36
2019-01-30T02:36:05.260Z,-6.40
2019-01-30T02:37:05.416Z,-6.40
2019-01-30T02:38:05.268Z,-6.34
2019-01-30T02:39:05.263Z,-6.39
2019-01-30T02:40:05.263Z,-6.26
2019-01-30T02:41:05.272Z,-6.26
2019-01-30T02:42:05.267Z,-6.29
2019-01-30T02:43:05.269Z,-6.26
2019-01-30T02:44:05.272Z,-6.34
2019-01-30T02:45:05.271Z,-6.42
2019-01-30T02:46:05.274Z,-6.26
2019-01-30T02:47:05.275Z,-6.39
2019-01-30T02:48:05.276Z,-6.39
2019-01-30T02:49:05.276Z,-6.39
2019-01-30T02:50:05.282Z,-6.43
2019-01-30T02:51:05.284Z,-6.39
2019-01-30T02:52:05.282Z,-6.36
2019-01-30T02:53:05.309Z,-6.40
2019-01-30T02:54:05.287Z,-6.44
2019-01-30T02:55:05.288Z,-6.40
2019-01-30T02:56:05.296Z,-6.42
2019-01-30T02:57:05.291Z,-6.46
2019-01-30T02:58:05.292Z,-6.46
2019-01-30T02:59:05.295Z,-6.58
2019-01-30T03:00:05.295Z,-6.43
2019-01-30T03:01:05.294Z,-6.50
2019-01-30T03:02:05.301Z,-6.55
2019-01-30T03:03:05.295Z,-6.54
2019-01-30T03:04:05.300Z,-6.44
2019-01-30T03:05:05.300Z,-6.58
2019-01-30T03:06:05.304Z,-6.61
2019-01-30T03:07:05.308Z,-6.66
2019-01-30T03:08:05.303Z,-6.62
2019-01-30T03:09:05.305Z,-6.66
2019-01-30T03:10:05.308Z,-6.74
2019-01-30T03:11:05.308Z,-6.66
2019-01-30T03:12:05.313Z,-6.76
2019-01-30T03:13:05.313Z,-6.65
2019-01-30T03:14:05.314Z,-6.74
2019-01-30T03:15:05.319Z,-6.71
2019-01-30T03:16:05.321Z,-6.73
2019-01-30T03:17:05.316Z,-6.68
2019-01-30T03:18:05.319Z,-6.77
2019-01-30T03:19:05.319Z,-6.74
2019-01-30T03:20:05.319Z,-6.77
2019-01-30T03:21:05.319Z,-6.76
2019-01-30T03:22:05.326Z,-6.73
2019-01-30T03:23:05.332Z,-6.77
2019-01-30T03:24:05.325Z,-6.76
2019-01-30T03:25:05.326Z,-6.74
2019-01-30T03:26:05.328Z,-6.73
2019-01-30T03:27:05.329Z,-6.80
2019-01-30T03:28:05.329Z,-6.77
2019-01-30T03:29:05.331Z,-6.80
2019-01-30T03:30:05.333Z,-6.79
2019-01-30T03:31:16.956Z,-6.87
2019-01-30T03:32:05.336Z,-6.87
2019-01-30T03:33:05.339Z,-6.87
2019-01-30T03:34:05.338Z,-6.95
2019-01-30T03:35:05.340Z,-6.86
2019-01-30T03:36:05.340Z,-6.94
2019-01-30T03:37:05.341Z,-6.91
2019-01-30T03:38:05.344Z,-6.89
2019-01-30T03:39:05.348Z,-7.00
2019-01-30T03:40:05.347Z,-7.01
2019-01-30T03:41:05.346Z,-6.97
2019-01-30T03:42:05.349Z,-6.98
2019-01-30T03:43:05.347Z,-7.00
2019-01-30T03:44:05.352Z,-6.97
2019-01-30T03:45:05.354Z,-6.97
2019-01-30T03:46:05.355Z,-6.98
2019-01-30T03:47:05.352Z,-6.89
2019-01-30T03:48:05.355Z,-6.94
2019-01-30T03:49:05.356Z,-6.91
2019-01-30T03:50:05.355Z,-7.00
2019-01-30T03:51:05.357Z,-6.92
2019-01-30T03:52:05.370Z,-6.87
2019-01-30T03:53:05.359Z,-6.91
2019-01-30T03:54:05.363Z,-6.89
2019-01-30T03:55:05.362Z,-6.83
2019-01-30T03:56:05.363Z,-6.82
2019-01-30T03:57:05.364Z,-6.87
2019-01-30T03:58:05.373Z,-6.83
2019-01-30T03:59:05.369Z,-6.92
2019-01-30T04:00:05.392Z,-6.87
2019-01-30T04:01:05.366Z,-6.89
2019-01-30T04:02:05.369Z,-6.83
2019-01-30T04:03:05.371Z,-6.95
2019-01-30T04:04:05.372Z,-6.89
2019-01-30T04:05:05.369Z,-6.95
2019-01-30T04:06:05.379Z,-7.02
2019-01-30T04:07:05.378Z,-7.00
2019-01-30T04:08:05.373Z,-7.00
2019-01-30T04:09:05.377Z,-6.94
2019-01-30T04:10:05.376Z,-6.98
2019-01-30T04:11:05.375Z,-7.05
2019-01-30T04:12:05.377Z,-7.16
2019-01-30T04:13:05.378Z,-7.08
2019-01-30T04:14:05.380Z,-7.21
2019-01-30T04:15:05.382Z,-7.16
2019-01-30T04:16:05.389Z,-7.21
2019-01-30T04:17:05.381Z,-7.13
2019-01-30T04:18:05.385Z,-7.18
2019-01-30T04:19:05.386Z,-7.13
2019-01-30T04:20:05.389Z,-7.04
2019-01-30T04:21:05.388Z,-7.11
2019-01-30T04:22:05.386Z,-7.12
2019-01-30T04:23:05.390Z,-7.01
2019-01-30T04:24:05.387Z,-7.04
2019-01-30T04:25:05.394Z,-7.04
2019-01-30T04:26:05.390Z,-6.98
2019-01-30T04:27:05.393Z,-7.02
2019-01-30T04:28:05.394Z,-6.97
2019-01-30T04:29:05.394Z,-7.00
2019-01-30T04:30:05.398Z,-6.87
2019-01-30T04:31:05.399Z,-6.86
2019-01-30T04:32:05.397Z,-6.84
2019-01-30T04:33:05.404Z,-6.83
2019-01-30T04:34:05.399Z,-6.91
2019-01-30T04:35:05.400Z,-6.86
2019-01-30T04:36:05.398Z,-6.89
2019-01-30T04:37:05.399Z,-6.91
2019-01-30T04:38:05.406Z,-6.87
2019-01-30T04:39:05.402Z,-6.89
2019-01-30T04:40:05.409Z,-6.82
2019-01-30T04:41:05.406Z,-6.91
2019-01-30T04:42:05.406Z,-6.73
2019-01-30T04:43:05.408Z,-6.79
2019-01-30T04:44:05.406Z,-6.77
2019-01-30T04:45:05.407Z,-6.82
2019-01-30T04:46:05.409Z,-6.86
2019-01-30T04:47:05.411Z,-6.92
2019-01-30T04:48:05.410Z,-6.80
2019-01-30T04:49:05.411Z,-6.86
2019-01-30T04:50:05.413Z,-6.82
2019-01-30T04:51:05.417Z,-6.92
2019-01-30T04:52:05.420Z,-6.79
2019-01-30T04:53:05.418Z,-6.76
2019-01-30T04:54:05.415Z,-6.73
2019-01-30T04:55:05.421Z,-6.73
2019-01-30T04:56:05.417Z,-6.69
2019-01-30T04:57:05.417Z,-6.74
2019-01-30T04:58:05.425Z,-6.66
2019-01-30T04:59:05.421Z,-6.68
2019-01-30T05:00:05.428Z,-6.74
2019-01-30T05:01:05.430Z,-6.74
2019-01-30T05:02:05.429Z,-6.73
2019-01-30T05:03:05.427Z,-6.66
2019-01-30T05:04:05.429Z,-6.69
2019-01-30T05:05:05.426Z,-6.69
2019-01-30T05:06:05.430Z,-6.66
2019-01-30T05:07:05.432Z,-6.69
2019-01-30T05:08:05.429Z,-6.71
2019-01-30T05:09:05.430Z,-6.65
2019-01-30T05:10:05.435Z,-6.68
2019-01-30T05:11:05.439Z,-6.65
2019-01-30T05:12:05.432Z,-6.66
2019-01-30T05:13:05.437Z,-6.63
2019-01-30T05:14:05.440Z,-6.63
2019-01-30T05:15:05.440Z,-6.68
2019-01-30T05:16:05.439Z,-6.68
2019-01-30T05:17:05.440Z,-6.79
2019-01-30T05:18:05.440Z,-6.83
2019-01-30T05:19:05.443Z,-6.86
2019-01-30T05:20:05.444Z,-6.87
2019-01-30T05:21:05.445Z,-6.92
2019-01-30T05:22:05.444Z,-6.91
2019-01-30T05:23:05.449Z,-6.98
2019-01-30T05:24:05.447Z,-6.83
2019-01-30T05:25:05.448Z,-6.89
2019-01-30T05:26:05.448Z,-6.89
2019-01-30T05:27:05.452Z,-6.82
2019-01-30T05:28:05.449Z,-6.87
2019-01-30T05:29:05.452Z,-6.86
2019-01-30T05:30:05.452Z,-6.92
2019-01-30T05:31:05.455Z,-6.84
2019-01-30T05:32:05.459Z,-6.86
2019-01-30T05:33:05.457Z,-6.86
2019-01-30T05:34:05.457Z,-6.97
2019-01-30T05:35:05.457Z,-6.89
2019-01-30T05:36:05.461Z,-6.97
2019-01-30T05:37:05.459Z,-6.97
2019-01-30T05:38:05.460Z,-6.91
2019-01-30T05:39:05.465Z,-6.98
2019-01-30T05:40:05.464Z,-6.94
2019-01-30T05:41:05.465Z,-6.92
2019-01-30T05:42:05.469Z,-7.02
2019-01-30T05:43:05.465Z,-7.01
2019-01-30T05:44:05.464Z,-6.98
2019-01-30T05:45:05.466Z,-7.05
2019-01-30T05:46:05.471Z,-7.01
2019-01-30T05:47:05.468Z,-7.07
2019-01-30T05:48:05.483Z,-7.23
2019-01-30T05:49:05.485Z,-7.23
2019-01-30T05:50:05.472Z,-7.26
2019-01-30T05:51:05.476Z,-7.30
2019-01-30T05:52:05.472Z,-7.33
2019-01-30T05:53:05.477Z,-7.22
2019-01-30T05:54:05.476Z,-7.26
2019-01-30T05:55:05.476Z,-7.22
2019-01-30T05:56:05.482Z,-7.13
2019-01-30T05:57:05.499Z,-7.13
2019-01-30T05:58:05.477Z,-7.11
2019-01-30T05:59:05.482Z,-7.19
2019-01-30T06:00:05.483Z,-7.13
2019-01-30T06:01:05.483Z,-7.13
2019-01-30T06:02:11.924Z,-7.05
2019-01-30T06:03:05.483Z,-7.05
2019-01-30T06:04:05.482Z,-7.13
2019-01-30T06:05:05.485Z,-7.11
2019-01-30T06:06:05.489Z,-6.98
2019-01-30T06:07:05.486Z,-7.01
2019-01-30T06:08:05.486Z,-7.11
2019-01-30T06:09:05.485Z,-7.12
2019-01-30T06:10:05.493Z,-7.07
2019-01-30T06:11:05.492Z,-7.02
2019-01-30T06:12:05.489Z,-6.98
2019-01-30T06:13:05.494Z,-7.05
2019-01-30T06:14:05.495Z,-7.01
2019-01-30T06:15:05.493Z,-7.01
2019-01-30T06:16:05.495Z,-7.08
2019-01-30T06:17:05.496Z,-7.02
2019-01-30T06:18:05.497Z,-7.00
2019-01-30T06:19:05.496Z,-7.05
2019-01-30T06:20:05.495Z,-7.00
2019-01-30T06:21:05.500Z,-7.07
2019-01-30T06:22:05.497Z,-6.98
2019-01-30T06:23:05.498Z,-7.05
2019-01-30T06:24:05.498Z,-7.05
2019-01-30T06:25:05.502Z,-6.97
2019-01-30T06:26:05.499Z,-7.02
2019-01-30T06:27:05.503Z,-7.05
2019-01-30T06:28:05.505Z,-6.95
2019-01-30T06:29:05.504Z,-6.95
2019-01-30T06:30:05.508Z,-7.05
2019-01-30T06:31:05.505Z,-7.04
2019-01-30T06:32:05.516Z,-7.01
2019-01-30T06:33:05.505Z,-6.94
2019-01-30T06:34:05.506Z,-7.11
2019-01-30T06:35:05.507Z,-6.98
2019-01-30T06:36:05.513Z,-7.02
2019-01-30T06:37:05.514Z,-7.02
2019-01-30T06:38:05.511Z,-7.04
2019-01-30T06:39:05.510Z,-7.08
2019-01-30T06:40:05.511Z,-7.33
2019-01-30T06:41:05.513Z,-7.23
2019-01-30T06:42:05.512Z,-7.41
2019-01-30T06:43:05.513Z,-7.41
2019-01-30T06:44:05.516Z,-7.43
2019-01-30T06:45:05.515Z,-7.51
2019-01-30T06:46:05.513Z,-7.58
2019-01-30T06:47:05.516Z,-7.50
2019-01-30T06:48:05.519Z,-7.46
2019-01-30T06:49:05.519Z,-7.52
2019-01-30T06:50:05.521Z,-7.43
2019-01-30T06:51:05.518Z,-7.37
2019-01-30T06:52:05.518Z,-7.39
2019-01-30T06:53:05.523Z,-7.34
2019-01-30T06:54:05.527Z,-7.21
2019-01-30T06:55:05.522Z,-7.19
2019-01-30T06:56:05.525Z,-7.25
2019-01-30T06:57:05.523Z,-7.36
2019-01-30T06:58:05.523Z,-7.30
2019-01-30T06:59:05.522Z,-7.34
2019-01-30T07:00:05.523Z,-7.29
2019-01-30T07:01:05.526Z,-7.22
2019-01-30T07:02:05.525Z,-7.33
2019-01-30T07:03:05.524Z,-7.23
2019-01-30T07:04:05.528Z,-7.18
2019-01-30T07:05:05.526Z,-7.16
2019-01-30T07:06:07.735Z,-7.25
2019-01-30T07:07:05.530Z,-7.26
2019-01-30T07:08:05.591Z,-7.25
2019-01-30T07:09:05.530Z,-7.23
2019-01-30T07:10:05.528Z,-7.50
2019-01-30T07:11:10.695Z,-7.52
2019-01-30T07:12:05.530Z,-7.71
2019-01-30T07:13:05.536Z,-7.72
2019-01-30T07:14:05.537Z,-7.66
2019-01-30T07:15:05.535Z,-7.57
2019-01-30T07:16:05.531Z,-7.60
2019-01-30T07:17:05.532Z,-7.51
2019-01-30T07:18:05.533Z,-7.41
2019-01-30T07:19:05.535Z,-7.36
2019-01-30T07:20:05.538Z,-7.31
2019-01-30T07:21:05.538Z,-7.30
2019-01-30T07:22:05.535Z,-7.30
2019-01-30T07:23:05.536Z,-7.18
2019-01-30T07:24:05.539Z,-7.21
2019-01-30T07:25:05.537Z,-7.13
2019-01-30T07:26:05.536Z,-7.15
2019-01-30T07:27:05.540Z,-7.19
2019-01-30T07:28:05.541Z,-7.26
2019-01-30T07:29:05.542Z,-7.13
2019-01-30T07:30:05.537Z,-7.23
2019-01-30T07:31:05.543Z,-7.16
2019-01-30T07:32:05.542Z,-7.11
2019-01-30T07:33:05.543Z,-7.04
2019-01-30T07:34:05.540Z,-7.02
2019-01-30T07:35:05.546Z,-6.95
2019-01-30T07:36:05.542Z,-6.87
2019-01-30T07:37:05.549Z,-6.83
2019-01-30T07:38:05.544Z,-6.83
2019-01-30T07:39:05.546Z,-6.69
2019-01-30T07:40:05.548Z,-6.71
2019-01-30T07:41:05.545Z,-6.62
2019-01-30T07:42:05.546Z,-6.62
2019-01-30T07:43:05.555Z,-6.47
2019-01-30T07:44:05.552Z,-6.50
2019-01-30T07:45:05.549Z,-6.49
2019-01-30T07:46:05.548Z,-6.44
2019-01-30T07:47:05.553Z,-6.40
2019-01-30T07:48:05.605Z,-6.28
2019-01-30T07:49:05.552Z,-6.26
2019-01-30T07:50:05.551Z,-6.29
2019-01-30T07:51:05.555Z,-6.22
2019-01-30T07:52:05.552Z,-6.28
2019-01-30T07:53:05.555Z,-6.21
2019-01-30T07:54:05.561Z,-6.21
2019-01-30T07:55:05.556Z,-6.19
2019-01-30T07:56:05.561Z,-6.16
2019-01-30T07:57:05.562Z,-6.26
2019-01-30T07:58:05.970Z,-6.25
2019-01-30T07:59:05.558Z,-6.10
2019-01-30T08:00:05.564Z,-6.08
2019-01-30T08:01:05.565Z,-6.10
2019-01-30T08:02:05.565Z,-6.04
2019-01-30T08:03:05.566Z,-6.00
2019-01-30T08:04:05.568Z,-5.94
2019-01-30T08:05:05.564Z,-5.87
2019-01-30T08:06:05.566Z,-5.75
2019-01-30T08:07:05.567Z,-5.83
2019-01-30T08:08:05.570Z,-5.79
2019-01-30T08:09:05.577Z,-5.79
2019-01-30T08:10:05.572Z,-5.82
2019-01-30T08:11:07.260Z,-5.83
2019-01-30T08:12:05.573Z,-5.76
2019-01-30T08:13:05.574Z,-5.80
2019-01-30T08:14:05.579Z,-5.79
2019-01-30T08:15:05.580Z,-5.79
2019-01-30T08:16:05.577Z,-5.75
2019-01-30T08:17:05.581Z,-5.69
2019-01-30T08:18:05.583Z,-5.57
2019-01-30T08:19:05.583Z,-5.59
2019-01-30T08:20:05.587Z,-5.55
2019-01-30T08:21:05.584Z,-5.54
2019-01-30T08:22:05.585Z,-5.50
2019-01-30T08:23:05.806Z,-5.43
2019-01-30T08:24:05.710Z,-5.37
2019-01-30T08:25:05.749Z,-5.36
2019-01-30T08:26:05.679Z,-5.41
2019-01-30T08:27:05.799Z,-5.29
2019-01-30T08:28:05.863Z,-5.26
2019-01-30T08:29:05.940Z,-5.25
2019-01-30T08:30:05.770Z,-5.22
2019-01-30T08:31:05.631Z,-5.07
2019-01-30T08:32:05.672Z,-5.13
2019-01-30T08:33:06.120Z,-5.13
2019-01-30T08:34:05.603Z,-5.07
2019-01-30T08:35:05.606Z,-4.99
2019-01-30T08:36:05.605Z,-5.08
2019-01-30T08:37:05.607Z,-5.06
2019-01-30T08:38:05.609Z,-5.14
2019-01-30T08:39:05.611Z,-5.13
2019-01-30T08:40:05.614Z,-5.07
2019-01-30T08:41:05.617Z,-5.03
2019-01-30T08:42:05.614Z,-5.14
2019-01-30T08:43:05.624Z,-4.97
2019-01-30T08:44:05.621Z,-4.96
2019-01-30T08:45:05.620Z,-4.96
2019-01-30T08:46:05.622Z,-4.95
2019-01-30T08:47:05.626Z,-5.13
2019-01-30T08:48:05.627Z,-5.19
2019-01-30T08:49:05.627Z,-5.10
2019-01-30T08:50:05.631Z,-5.03
2019-01-30T08:51:05.631Z,-5.06
2019-01-30T08:52:05.636Z,-5.13
2019-01-30T08:53:05.634Z,-4.97
2019-01-30T08:54:05.638Z,-4.83
2019-01-30T08:55:05.640Z,-4.79
2019-01-30T08:56:05.640Z,-4.78
2019-01-30T08:57:05.642Z,-4.83
2019-01-30T08:58:05.646Z,-4.83
2019-01-30T08:59:06.049Z,-4.79
2019-01-30T09:00:05.646Z,-4.78
2019-01-30T09:01:05.654Z,-4.75
2019-01-30T09:02:05.655Z,-4.81
2019-01-30T09:03:14.422Z,-4.87
2019-01-30T09:04:05.654Z,-4.87
2019-01-30T09:05:05.659Z,-4.95
2019-01-30T09:06:05.658Z,-4.87
2019-01-30T09:07:05.666Z,-4.78
2019-01-30T09:08:05.665Z,-4.78
2019-01-30T09:09:05.666Z,-4.83
2019-01-30T09:10:05.666Z,-4.65
2019-01-30T09:11:05.668Z,-5.00
2019-01-30T09:12:05.708Z,-5.07
2019-01-30T09:13:05.671Z,-4.97
2019-01-30T09:14:05.678Z,-4.86
2019-01-30T09:15:05.678Z,-4.83
2019-01-30T09:16:05.681Z,-4.77
2019-01-30T09:17:08.544Z,-4.85
2019-01-30T09:18:05.684Z,-4.77
2019-01-30T09:19:05.685Z,-4.72
2019-01-30T09:20:05.686Z,-4.83
2019-01-30T09:21:05.687Z,-4.68
2019-01-30T09:22:05.690Z,-4.60
2019-01-30T09:23:05.694Z,-4.58
2019-01-30T09:24:05.694Z,-4.53
2019-01-30T09:25:05.709Z,-4.40
2019-01-30T09:26:05.698Z,-4.36
2019-01-30T09:27:05.701Z,-4.50
2019-01-30T09:28:05.705Z,-4.58
2019-01-30T09:29:05.703Z,-4.58
2019-01-30T09:30:05.712Z,-4.46
2019-01-30T09:31:05.709Z,-4.39
2019-01-30T09:32:05.815Z,-4.47
2019-01-30T09:33:05.725Z,-4.47
2019-01-30T09:34:05.716Z,-4.30
2019-01-30T09:35:05.750Z,-4.28
2019-01-30T09:36:05.729Z,-4.18
2019-01-30T09:37:05.725Z,-4.10
2019-01-30T09:38:05.729Z,-4.21
2019-01-30T09:39:05.756Z,-4.12
2019-01-30T09:40:05.777Z,-4.12
2019-01-30T09:41:05.734Z,-3.99
2019-01-30T09:42:05.735Z,-3.88
2019-01-30T09:43:05.735Z,-3.88
2019-01-30T09:44:05.738Z,-3.81
2019-01-30T09:45:05.768Z,-3.82
2019-01-30T09:46:05.742Z,-3.86
2019-01-30T09:47:05.750Z,-3.81
2019-01-30T09:48:05.748Z,-3.86
2019-01-30T09:49:05.780Z,-3.67
2019-01-30T09:50:05.753Z,-3.69
2019-01-30T09:51:05.755Z,-3.82
2019-01-30T09:52:05.760Z,-3.75
2019-01-30T09:53:05.760Z,-3.71
2019-01-30T09:54:05.841Z,-3.93
2019-01-30T09:55:05.769Z,-3.91
2019-01-30T09:56:05.768Z,-3.46
2019-01-30T09:57:05.771Z,-3.42
2019-01-30T09:58:05.778Z,-3.62
2019-01-30T09:59:05.861Z,-3.31
2019-01-30T10:00:05.782Z,-2.86
2019-01-30T10:01:05.783Z,-2.58
2019-01-30T10:02:05.788Z,-2.46
2019-01-30T10:03:05.790Z,-2.73
2019-01-30T10:04:05.794Z,-2.66
2019-01-30T10:05:05.810Z,-2.70
2019-01-30T10:06:05.796Z,-2.10
2019-01-30T10:07:05.801Z,-1.69
2019-01-30T10:08:05.805Z,-1.54
2019-01-30T10:09:05.807Z,-1.48
2019-01-30T10:10:05.812Z,-1.37
2019-01-30T10:11:05.883Z,-1.31
2019-01-30T10:12:05.819Z,-1.22
2019-01-30T10:13:05.820Z,-1.55
2019-01-30T10:14:05.825Z,-2.29
2019-01-30T10:15:05.833Z,-2.49
2019-01-30T10:16:05.834Z,-2.52
2019-01-30T10:17:05.839Z,-2.78
2019-01-30T10:18:05.856Z,-3.20
2019-01-30T10:19:05.848Z,-3.07
2019-01-30T10:20:05.851Z,-2.84
2019-01-30T10:21:05.854Z,-2.71
2019-01-30T10:22:05.858Z,-2.49
2019-01-30T10:23:05.862Z,-2.30
2019-01-30T10:24:05.980Z,-2.18
2019-01-30T10:25:05.870Z,-2.55
2019-01-30T10:26:05.878Z,-3.07
2019-01-30T10:27:05.880Z,-3.45
2019-01-30T10:28:15.935Z,-3.17
2019-01-30T10:29:05.884Z,-2.64
2019-01-30T10:30:05.887Z,-2.16
2019-01-30T10:31:05.892Z,-2.23
2019-01-30T10:32:05.894Z,-2.10
2019-01-30T10:33:05.900Z,-2.32
2019-01-30T10:34:05.932Z,-2.61
2019-01-30T10:35:05.910Z,-2.64
2019-01-30T10:36:05.919Z,-2.37
2019-01-30T10:37:05.918Z,-2.50
2019-01-30T10:38:05.926Z,-2.27
2019-01-30T10:39:05.925Z,-2.13
2019-01-30T10:40:05.928Z,-2.21
2019-01-30T10:41:05.932Z,-2.24
2019-01-30T10:42:05.940Z,-2.18
2019-01-30T10:43:05.944Z,-2.21
2019-01-30T10:44:05.946Z,-2.12
2019-01-30T10:45:05.950Z,-2.34
2019-01-30T10:46:05.954Z,-2.26
2019-01-30T10:47:05.959Z,-2.21
2019-01-30T10:48:05.962Z,-3.45
2019-01-30T10:49:05.969Z,-3.60
2019-01-30T10:50:05.972Z,-3.38
2019-01-30T10:51:07.468Z,-3.42
2019-01-30T10:52:05.989Z,-3.60
2019-01-30T10:53:05.984Z,-3.54
2019-01-30T10:54:05.992Z,-3.52
2019-01-30T10:55:05.993Z,-3.05
2019-01-30T10:56:05.998Z,-3.02
2019-01-30T10:57:05.999Z,-3.17
2019-01-30T10:58:06.003Z,-3.60
2019-01-30T10:59:06.006Z,-3.85
2019-01-30T11:00:06.012Z,-3.91
2019-01-30T11:01:06.135Z,-3.85
2019-01-30T11:02:06.018Z,-4.03
2019-01-30T11:03:06.021Z,-4.30
2019-01-30T11:04:06.024Z,-4.00
2019-01-30T11:05:06.029Z,-3.91
2019-01-30T11:06:06.031Z,-3.36
2019-01-30T11:07:06.035Z,-3.36
2019-01-30T11:08:06.038Z,-2.99
2019-01-30T11:09:06.043Z,-2.77
2019-01-30T11:10:06.050Z,-2.77
2019-01-30T11:11:07.909Z,-3.71
2019-01-30T11:12:06.053Z,-4.30
2019-01-30T11:13:06.057Z,-4.25
2019-01-30T11:14:06.061Z,-4.04
2019-01-30T11:15:06.066Z,-3.38
2019-01-30T11:16:06.070Z,-2.86
2019-01-30T11:17:08.558Z,-2.32
2019-01-30T11:18:06.079Z,-1.73
2019-01-30T11:19:06.079Z,-1.02
2019-01-30T11:20:06.083Z,-0.69
2019-01-30T11:21:06.194Z,-0.55
2019-01-30T11:22:06.093Z,-0.37
2019-01-30T11:23:06.093Z,-0.58
2019-01-30T11:24:06.098Z,-0.54
2019-01-30T11:25:06.105Z,-0.01
2019-01-30T11:26:06.111Z,-0.01
2019-01-30T11:27:06.115Z,0.36
2019-01-30T11:28:06.116Z,0.55
2019-01-30T11:29:06.119Z,-0.85
2019-01-30T11:30:06.125Z,-0.73
2019-01-30T11:31:06.130Z,-0.72
2019-01-30T11:32:06.135Z,-1.07
2019-01-30T11:33:06.140Z,-1.52
2019-01-30T11:34:07.542Z,-1.59
2019-01-30T11:35:06.151Z,-1.52
2019-01-30T11:36:06.155Z,-1.35
2019-01-30T11:37:06.166Z,-1.16
2019-01-30T11:38:08.889Z,-1.05
2019-01-30T11:39:06.175Z,-1.01
2019-01-30T11:40:06.179Z,-0.99
2019-01-30T11:41:06.186Z,-1.25
2019-01-30T11:42:06.188Z,-1.20
2019-01-30T11:43:06.196Z,-0.78
2019-01-30T11:44:06.199Z,-0.54
2019-01-30T11:45:06.207Z,-1.22
2019-01-30T11:46:06.208Z,-1.28
2019-01-30T11:47:06.218Z,-1.17
2019-01-30T11:48:06.225Z,-1.92
2019-01-30T11:49:06.227Z,-2.26
2019-01-30T11:50:06.237Z,-2.13
2019-01-30T11:51:06.241Z,-2.06
2019-01-30T11:52:06.244Z,-2.10
2019-01-30T11:53:06.248Z,-1.95
2019-01-30T11:54:06.259Z,-1.33
2019-01-30T11:55:06.264Z,-0.78
2019-01-30T11:56:06.268Z,-1.25
2019-01-30T11:57:06.273Z,-1.94
2019-01-30T11:58:06.275Z,-1.94
2019-01-30T11:59:06.282Z,-1.01
2019-01-30T12:00:06.287Z,-0.91
2019-01-30T12:01:06.291Z,-0.89
2019-01-30T12:02:06.298Z,-0.79
2019-01-30T12:03:06.305Z,-1.22
2019-01-30T12:04:06.308Z,-1.62
2019-01-30T12:05:06.316Z,-2.10
2019-01-30T12:06:06.321Z,-2.66
2019-01-30T12:07:06.328Z,-3.72
2019-01-30T12:08:06.330Z,-4.36
2019-01-30T12:09:06.337Z,-4.74
2019-01-30T12:10:06.342Z,-4.04
2019-01-30T12:11:06.350Z,-3.69
2019-01-30T12:12:06.351Z,-3.99
2019-01-30T12:13:06.356Z,-4.04
2019-01-30T12:14:06.363Z,-3.71
2019-01-30T12:15:06.369Z,-3.85
2019-01-30T12:16:06.373Z,-4.03
2019-01-30T12:17:06.376Z,-4.10
2019-01-30T12:18:06.380Z,-4.00
2019-01-30T12:19:06.387Z,-3.86
2019-01-30T12:20:06.390Z,-3.71
2019-01-30T12:21:06.394Z,-3.33
2019-01-30T12:22:06.398Z,-3.82
2019-01-30T12:23:06.407Z,-3.54
2019-01-30T12:24:06.410Z,-3.85
2019-01-30T12:25:06.412Z,-3.78
2019-01-30T12:26:06.416Z,-3.20
2019-01-30T12:27:06.424Z,-2.92
2019-01-30T12:28:06.425Z,-2.77
2019-01-30T12:29:06.429Z,-2.18
2019-01-30T12:30:06.433Z,-1.62
2019-01-30T12:31:06.437Z,-1.04
2019-01-30T12:32:06.440Z,-1.54
2019-01-30T12:33:06.445Z,-2.12
2019-01-30T12:34:06.456Z,-1.77
2019-01-30T12:35:06.461Z,-1.82
2019-01-30T12:36:06.458Z,-1.76
2019-01-30T12:37:06.463Z,-1.97
2019-01-30T12:38:06.469Z,-1.90
2019-01-30T12:39:06.472Z,-1.55
2019-01-30T12:40:06.480Z,-1.22
2019-01-30T12:41:06.487Z,-0.92
2019-01-30T12:42:06.487Z,-0.60
2019-01-30T12:43:06.491Z,-0.95
2019-01-30T12:44:06.498Z,-0.57
2019-01-30T12:45:06.502Z,-1.49
2019-01-30T12:46:06.506Z,-2.29
2019-01-30T12:47:06.512Z,-1.35
2019-01-30T12:48:06.622Z,-1.20
2019-01-30T12:49:06.522Z,-0.89
2019-01-30T12:50:07.562Z,-0.79
2019-01-30T12:51:06.534Z,0.02
2019-01-30T12:52:06.538Z,-0.31